createdAt,value
2023-03-29T00:00:35.813Z,99741.06
2023-03-29T00:01:41.871Z,99731.44
2023-03-29T00:02:48.365Z,99744.63
2023-03-29T00:03:51.927Z,99745.56
2023-03-29T00:04:54.286Z,99738.53
2023-03-29T00:06:03.959Z,99738.63
2023-03-29T00:07:07.529Z,99729.19
2023-03-29T00:08:14.424Z,99738.75
2023-03-29T00:09:18.254Z,99735.22
2023-03-29T00:10:24.231Z,99734.28
2023-03-29T00:11:27.383Z,99746.47
2023-03-29T00:12:30.455Z,99738.56
2023-03-29T00:13:33.603Z,99733.41
2023-03-29T00:14:35.859Z,99726.59
2023-03-29T00:15:38.041Z,99728.25
2023-03-29T00:16:45.023Z,99720.38
2023-03-29T00:17:48.499Z,99725.47
2023-03-29T00:18:54.248Z,99736.03
2023-03-29T00:19:57.934Z,99728.19
2023-03-29T00:21:01.572Z,99723.94
2023-03-29T00:22:06.127Z,99730.91
2023-03-29T00:23:08.362Z,99732.44
2023-03-29T00:24:10.696Z,99720.47
2023-03-29T00:25:13.812Z,99718.69
2023-03-29T00:26:16.402Z,99728.34
2023-03-29T00:27:21.778Z,99720.50
2023-03-29T00:28:28.108Z,99719.66
2023-03-29T00:29:31.600Z,99726.50
2023-03-29T00:30:34.907Z,99725.53
2023-03-29T00:31:38.742Z,99728.91
2023-03-29T00:32:43.149Z,99725.41
2023-03-29T00:33:45.985Z,99724.59
2023-03-29T00:34:55.629Z,99717.50
2023-03-29T00:35:59.092Z,99720.84
2023-03-29T00:37:02.463Z,99722.56
2023-03-29T00:38:06.155Z,99717.28
2023-03-29T00:39:09.481Z,99706.06
2023-03-29T00:40:12.104Z,99714.78
2023-03-29T00:41:14.520Z,99708.72
2023-03-29T00:42:17.584Z,99709.41
2023-03-29T00:43:19.862Z,99716.50
2023-03-29T00:45:07.447Z,99714.03
2023-03-29T00:46:09.714Z,99718.44
2023-03-29T00:47:11.974Z,99708.06
2023-03-29T00:48:18.064Z,99701.03
2023-03-29T00:49:21.061Z,99705.47
2023-03-29T00:50:29.867Z,99694.19
2023-03-29T00:51:35.584Z,99696.03
2023-03-29T00:52:41.228Z,99698.63
2023-03-29T00:53:48.735Z,99686.56
2023-03-29T00:54:54.862Z,99685.72
2023-03-29T00:56:07.316Z,99694.44
2023-03-29T00:57:11.866Z,99700.31
2023-03-29T00:58:17.864Z,99686.44
2023-03-29T00:59:24.674Z,99673.53
2023-03-29T01:00:33.334Z,99674.25
2023-03-29T01:01:55.016Z,99669.91
2023-03-29T01:03:00.167Z,99675.00
2023-03-29T01:04:08.594Z,99682.06
2023-03-29T01:05:20.112Z,99681.97
2023-03-29T01:06:28.924Z,99675.03
2023-03-29T01:07:35.261Z,99667.94
2023-03-29T01:08:47.459Z,99675.06
2023-03-29T01:09:57.229Z,99668.19
2023-03-29T01:11:15.837Z,99670.84
2023-03-29T01:12:24.202Z,99662.06
2023-03-29T01:13:41.712Z,99667.41
2023-03-29T01:14:52.693Z,99656.19
2023-03-29T01:15:58.998Z,99660.41
2023-03-29T01:17:02.083Z,99657.91
2023-03-29T01:18:04.545Z,99652.75
2023-03-29T01:19:10.467Z,99651.00
2023-03-29T01:20:19.146Z,99650.78
2023-03-29T01:21:21.398Z,99641.41
2023-03-29T01:22:54.605Z,99642.28
2023-03-29T01:24:09.184Z,99647.56
2023-03-29T01:25:26.725Z,99649.44
2023-03-29T01:26:41.707Z,99641.56
2023-03-29T01:27:53.560Z,99636.38
2023-03-29T01:29:05.686Z,99629.34
2023-03-29T01:30:23.479Z,99625.03
2023-03-29T01:31:29.975Z,99631.13
2023-03-29T01:32:44.640Z,99628.53
2023-03-29T01:33:55.595Z,99620.69
2023-03-29T01:35:22.370Z,99617.22
2023-03-29T01:36:37.810Z,99612.03
2023-03-29T01:37:49.343Z,99612.84
2023-03-29T01:38:58.253Z,99609.31
2023-03-29T01:40:01.453Z,99612.00
2023-03-29T01:41:04.356Z,99601.56
2023-03-29T01:42:25.037Z,99601.47
2023-03-29T01:43:34.220Z,99607.72
2023-03-29T01:45:06.379Z,99592.94
2023-03-29T01:46:18.921Z,99604.31
2023-03-29T01:47:27.332Z,99599.81
2023-03-29T01:48:32.685Z,99599.88
2023-03-29T01:49:45.267Z,99591.22
2023-03-29T01:50:52.031Z,99596.34
2023-03-29T01:52:11.393Z,99591.91
2023-03-29T01:53:18.321Z,99586.81
2023-03-29T01:54:26.271Z,99575.38
2023-03-29T01:55:34.628Z,99577.19
2023-03-29T01:56:43.444Z,99576.59
2023-03-29T01:57:48.555Z,99573.88
2023-03-29T01:59:08.288Z,99578.06
2023-03-29T02:02:11.831Z,99584.34
2023-03-29T02:03:17.387Z,99579.06
2023-03-29T02:04:30.523Z,99579.81
2023-03-29T02:05:34.922Z,99581.66
2023-03-29T02:06:37.827Z,99585.16
2023-03-29T02:07:43.478Z,99586.66
2023-03-29T02:08:46.777Z,99585.69
2023-03-29T02:09:52.511Z,99583.13
2023-03-29T02:10:54.986Z,99584.91
2023-03-29T02:12:00.801Z,99578.94
2023-03-29T02:13:03.964Z,99585.00
2023-03-29T02:14:09.822Z,99588.31
2023-03-29T02:15:15.221Z,99585.75
2023-03-29T02:17:34.787Z,99582.25
2023-03-29T02:18:37.769Z,99570.22
2023-03-29T02:19:40.355Z,99571.84
2023-03-29T02:20:47.184Z,99571.06
2023-03-29T02:21:58.071Z,99563.44
2023-03-29T02:23:05.965Z,99568.75
2023-03-29T02:24:13.297Z,99566.06
2023-03-29T02:25:17.443Z,99573.91
2023-03-29T02:26:22.434Z,99566.09
2023-03-29T02:27:27.244Z,99573.78
2023-03-29T02:28:31.849Z,99570.50
2023-03-29T02:29:34.145Z,99573.06
2023-03-29T02:39:35.819Z,99551.16
2023-03-29T02:40:40.687Z,99553.78
2023-03-29T02:41:47.160Z,99538.41
2023-03-29T02:42:49.935Z,99537.63
2023-03-29T02:43:53.244Z,99544.47
2023-03-29T02:44:58.720Z,99528.78
2023-03-29T02:46:02.718Z,99536.47
2023-03-29T02:47:16.020Z,99535.69
2023-03-29T02:48:22.121Z,99540.09
2023-03-29T02:49:24.909Z,99529.59
2023-03-29T02:50:33.596Z,99533.00
2023-03-29T02:51:37.229Z,99529.47
2023-03-29T02:52:44.426Z,99523.25
2023-03-29T02:53:55.489Z,99519.84
2023-03-29T02:55:00.386Z,99519.81
2023-03-29T02:56:04.494Z,99530.97
2023-03-29T02:57:07.416Z,99524.75
2023-03-29T02:58:10.244Z,99526.44
2023-03-29T02:59:16.831Z,99529.78
2023-03-29T03:00:20.149Z,99527.09
2023-03-29T03:01:23.045Z,99524.47
2023-03-29T03:02:26.066Z,99527.97
2023-03-29T03:03:29.749Z,99526.03
2023-03-29T03:04:35.713Z,99533.94
2023-03-29T03:05:38.788Z,99537.41
2023-03-29T03:06:42.372Z,99540.75
2023-03-29T03:07:46.275Z,99544.84
2023-03-29T03:08:49.612Z,99545.75
2023-03-29T03:09:52.657Z,99539.84
2023-03-29T03:10:55.044Z,99538.16
2023-03-29T03:11:57.258Z,99538.91
2023-03-29T03:13:01.402Z,99532.88
2023-03-29T03:14:07.390Z,99532.00
2023-03-29T03:15:10.704Z,99535.38
2023-03-29T03:16:15.313Z,99538.13
2023-03-29T03:17:18.901Z,99530.28
2023-03-29T03:18:23.310Z,99533.69
2023-03-29T03:19:25.818Z,99535.53
2023-03-29T03:20:28.233Z,99544.03
2023-03-29T03:21:31.061Z,99538.91
2023-03-29T03:22:35.035Z,99541.50
2023-03-29T03:23:37.298Z,99540.56
2023-03-29T03:24:40.080Z,99535.47
2023-03-29T03:25:44.568Z,99542.59
2023-03-29T03:26:47.147Z,99543.59
2023-03-29T03:27:50.268Z,99531.41
2023-03-29T03:28:56.360Z,99537.31
2023-03-29T03:30:17.412Z,99539.59
2023-03-29T03:31:41.277Z,99535.25
2023-03-29T03:32:50.517Z,99534.84
2023-03-29T03:34:28.067Z,99535.97
2023-03-29T03:35:35.843Z,99532.09
2023-03-29T03:36:38.149Z,99538.66
2023-03-29T03:37:40.594Z,99543.75
2023-03-29T03:38:44.259Z,99535.03
2023-03-29T03:39:47.493Z,99534.47
2023-03-29T03:40:55.151Z,99533.44
2023-03-29T03:41:57.905Z,99539.25
2023-03-29T03:43:00.512Z,99534.63
2023-03-29T03:44:02.788Z,99544.06
2023-03-29T03:45:08.234Z,99533.44
2023-03-29T03:46:29.923Z,99531.44
2023-03-29T03:47:33.997Z,99521.72
2023-03-29T03:48:50.109Z,99527.63
2023-03-29T03:50:06.370Z,99523.22
2023-03-29T03:51:09.307Z,99523.34
2023-03-29T03:52:11.805Z,99531.19
2023-03-29T03:53:14.019Z,99541.44
2023-03-29T03:54:35.205Z,99529.22
2023-03-29T03:56:02.126Z,99530.91
2023-03-29T03:57:12.680Z,99531.03
2023-03-29T03:58:23.515Z,99539.91
2023-03-29T03:59:26.548Z,99532.56
2023-03-29T04:00:35.440Z,99535.31
2023-03-29T04:01:58.492Z,99541.47
2023-03-29T04:03:02.287Z,99540.56
2023-03-29T04:04:05.169Z,99533.84
2023-03-29T04:05:08.810Z,99540.84
2023-03-29T04:06:13.881Z,99531.06
2023-03-29T04:07:45.307Z,99541.34
2023-03-29T04:09:06.851Z,99540.72
2023-03-29T04:10:13.233Z,99537.41
2023-03-29T04:11:41.842Z,99539.19
2023-03-29T04:12:44.535Z,99532.06
2023-03-29T04:13:46.761Z,99535.63
2023-03-29T04:15:17.741Z,99535.59
2023-03-29T04:16:27.730Z,99539.22
2023-03-29T04:17:32.242Z,99532.19
2023-03-29T04:18:38.622Z,99545.22
2023-03-29T04:19:41.051Z,99527.78
2023-03-29T04:20:43.912Z,99544.41
2023-03-29T04:21:49.124Z,99539.38
2023-03-29T04:22:51.984Z,99537.75
2023-03-29T04:23:55.272Z,99535.53
2023-03-29T04:24:58.239Z,99536.38
2023-03-29T04:26:35.946Z,99535.34
2023-03-29T04:27:46.411Z,99538.72
2023-03-29T04:29:00.134Z,99536.88
2023-03-29T04:30:14.398Z,99548.22
2023-03-29T04:31:56.442Z,99540.34
2023-03-29T04:33:23.692Z,99543.69
2023-03-29T04:34:33.825Z,99547.16
2023-03-29T04:35:36.578Z,99544.66
2023-03-29T04:36:39.061Z,99542.94
2023-03-29T04:37:48.203Z,99540.25
2023-03-29T04:38:54.856Z,99549.63
2023-03-29T04:40:01.342Z,99537.59
2023-03-29T04:41:09.422Z,99542.94
2023-03-29T04:42:30.521Z,99551.59
2023-03-29T04:43:34.451Z,99541.94
2023-03-29T04:44:55.575Z,99548.09
2023-03-29T04:46:11.161Z,99551.44
2023-03-29T04:47:40.951Z,99546.72
2023-03-29T04:48:51.277Z,99550.31
2023-03-29T04:50:01.628Z,99551.75
2023-03-29T04:51:12.721Z,99543.16
2023-03-29T04:52:19.234Z,99547.66
2023-03-29T04:53:22.184Z,99552.81
2023-03-29T04:54:25.582Z,99544.16
2023-03-29T04:55:41.225Z,99547.44
2023-03-29T04:56:46.746Z,99548.94
2023-03-29T04:58:11.796Z,99554.44
2023-03-29T04:59:15.624Z,99554.59
2023-03-29T05:00:20.411Z,99556.66
2023-03-29T05:01:40.861Z,99561.75
2023-03-29T05:02:44.341Z,99562.50
2023-03-29T05:03:47.614Z,99555.13
2023-03-29T05:04:59.529Z,99558.63
2023-03-29T05:06:07.089Z,99565.25
2023-03-29T05:07:10.244Z,99572.28
2023-03-29T05:08:12.743Z,99570.22
2023-03-29T05:09:35.513Z,99567.75
2023-03-29T05:10:46.322Z,99569.25
2023-03-29T05:11:50.365Z,99564.47
2023-03-29T05:12:54.044Z,99564.75
2023-03-29T05:14:02.241Z,99554.47
2023-03-29T05:15:08.260Z,99555.41
2023-03-29T05:16:11.201Z,99559.66
2023-03-29T05:17:17.072Z,99565.56
2023-03-29T05:18:21.025Z,99569.59
2023-03-29T05:19:23.288Z,99561.59
2023-03-29T05:20:25.470Z,99563.28
2023-03-29T05:21:28.480Z,99569.22
2023-03-29T05:22:33.425Z,99572.66
2023-03-29T05:23:36.177Z,99569.56
2023-03-29T05:24:42.038Z,99577.66
2023-03-29T05:25:53.430Z,99564.59
2023-03-29T05:26:56.328Z,99570.59
2023-03-29T05:28:00.085Z,99563.38
2023-03-29T05:29:02.811Z,99560.81
2023-03-29T05:30:05.941Z,99569.25
2023-03-29T05:31:17.387Z,99576.97
2023-03-29T05:32:23.068Z,99574.19
2023-03-29T05:33:25.833Z,99575.31
2023-03-29T05:34:29.650Z,99575.41
2023-03-29T05:35:35.880Z,99568.03
2023-03-29T05:36:42.846Z,99574.72
2023-03-29T05:37:47.163Z,99566.19
2023-03-29T05:38:49.814Z,99571.13
2023-03-29T05:39:53.649Z,99575.63
2023-03-29T05:41:10.737Z,99562.78
2023-03-29T05:42:37.835Z,99563.75
2023-03-29T05:43:43.949Z,99568.72
2023-03-29T05:44:46.498Z,99569.78
2023-03-29T05:45:55.688Z,99555.78
2023-03-29T05:46:58.561Z,99558.19
2023-03-29T05:48:01.882Z,99561.69
2023-03-29T05:49:04.635Z,99564.84
2023-03-29T05:50:32.793Z,99559.63
2023-03-29T05:51:35.822Z,99560.00
2023-03-29T05:52:38.724Z,99567.78
2023-03-29T05:53:41.182Z,99569.13
2023-03-29T05:54:43.543Z,99565.63
2023-03-29T05:55:47.803Z,99561.66
2023-03-29T05:56:52.531Z,99563.91
2023-03-29T05:57:55.642Z,99566.31
2023-03-29T05:59:02.153Z,99556.81
2023-03-29T06:00:23.821Z,99561.78
2023-03-29T06:01:32.384Z,99568.31
2023-03-29T06:02:43.705Z,99561.63
2023-03-29T06:03:47.414Z,99563.88
2023-03-29T06:04:50.286Z,99566.22
2023-03-29T06:06:02.251Z,99566.06
2023-03-29T06:07:05.512Z,99566.13
2023-03-29T06:08:08.861Z,99571.16
2023-03-29T06:09:22.737Z,99561.16
2023-03-29T06:10:36.408Z,99561.81
2023-03-29T06:11:56.357Z,99567.88
2023-03-29T06:13:18.402Z,99570.22
2023-03-29T06:14:23.194Z,99562.50
2023-03-29T06:15:30.805Z,99569.41
2023-03-29T06:16:40.190Z,99582.41
2023-03-29T06:17:45.852Z,99571.06
2023-03-29T06:18:48.738Z,99572.78
2023-03-29T06:19:53.083Z,99572.69
2023-03-29T06:23:59.738Z,99571.84
2023-03-29T06:25:07.037Z,99561.25
2023-03-29T06:26:10.597Z,99573.56
2023-03-29T06:27:14.299Z,99577.06
2023-03-29T06:28:17.792Z,99575.31
2023-03-29T06:29:20.838Z,99570.03
2023-03-29T06:30:23.258Z,99579.44
2023-03-29T06:31:31.510Z,99570.00
2023-03-29T06:32:35.645Z,99574.47
2023-03-29T06:33:43.129Z,99566.41
2023-03-29T06:35:04.975Z,99574.97
2023-03-29T06:36:11.886Z,99578.25
2023-03-29T06:37:14.474Z,99573.19
2023-03-29T06:38:17.405Z,99578.19
2023-03-29T06:39:39.025Z,99578.75
2023-03-29T06:41:06.842Z,99579.34
2023-03-29T06:42:32.861Z,99569.06
2023-03-29T06:44:04.939Z,99569.78
2023-03-29T06:45:11.692Z,99572.22
2023-03-29T06:46:15.040Z,99580.91
2023-03-29T06:47:31.358Z,99579.13
2023-03-29T06:48:33.734Z,99569.63
2023-03-29T06:49:36.065Z,99571.41
2023-03-29T06:50:48.349Z,99572.78
2023-03-29T06:51:52.891Z,99571.63
2023-03-29T06:52:56.237Z,99571.88
2023-03-29T06:53:59.256Z,99572.72
2023-03-29T06:55:02.802Z,99571.03
2023-03-29T06:56:08.956Z,99571.69
2023-03-29T06:57:16.180Z,99580.41
2023-03-29T06:58:18.616Z,99582.09
2023-03-29T06:59:21.402Z,99586.34
2023-03-29T07:00:35.797Z,99585.53
2023-03-29T07:01:47.296Z,99577.88
2023-03-29T07:03:00.720Z,99589.22
2023-03-29T07:04:08.153Z,99585.75
2023-03-29T07:05:27.213Z,99589.88
2023-03-29T07:06:29.786Z,99590.72
2023-03-29T07:07:52.637Z,99591.59
2023-03-29T07:09:14.134Z,99595.91
2023-03-29T07:10:41.595Z,99592.47
2023-03-29T07:12:02.452Z,99598.09
2023-03-29T07:13:07.007Z,99594.59
2023-03-29T07:14:09.664Z,99592.91
2023-03-29T07:15:12.266Z,99599.06
2023-03-29T07:16:32.931Z,99598.75
2023-03-29T07:17:55.916Z,99593.59
2023-03-29T07:18:59.038Z,99590.16
2023-03-29T07:20:25.048Z,99595.19
2023-03-29T07:21:38.488Z,99605.75
2023-03-29T07:22:42.256Z,99602.34
2023-03-29T07:23:44.484Z,99602.38
2023-03-29T07:24:47.249Z,99601.66
2023-03-29T07:25:50.438Z,99604.13
2023-03-29T07:27:03.398Z,99597.72
2023-03-29T07:28:08.008Z,99597.84
2023-03-29T07:29:10.638Z,99609.09
2023-03-29T07:30:19.066Z,99603.47
2023-03-29T07:31:21.828Z,99596.28
2023-03-29T07:32:31.629Z,99603.94
2023-03-29T07:33:52.318Z,99603.16
2023-03-29T07:34:55.664Z,99604.13
2023-03-29T07:36:04.986Z,99601.25
2023-03-29T07:37:07.413Z,99595.09
2023-03-29T07:38:10.006Z,99602.00
2023-03-29T07:39:16.328Z,99600.41
2023-03-29T07:40:30.945Z,99601.06
2023-03-29T07:41:33.154Z,99607.03
2023-03-29T07:42:43.861Z,99600.25
2023-03-29T07:43:51.805Z,99605.91
2023-03-29T07:44:58.521Z,99600.19
2023-03-29T07:46:06.566Z,99607.31
2023-03-29T07:47:10.586Z,99604.78
2023-03-29T07:48:14.535Z,99600.41
2023-03-29T07:49:27.326Z,99595.47
2023-03-29T07:50:32.536Z,99592.69
2023-03-29T07:51:37.012Z,99596.00
2023-03-29T07:52:44.622Z,99597.25
2023-03-29T07:53:46.895Z,99600.06
2023-03-29T07:55:13.773Z,99606.44
2023-03-29T07:56:29.056Z,99602.31
2023-03-29T07:57:49.326Z,99599.34
2023-03-29T07:58:52.124Z,99605.72
2023-03-29T07:59:55.171Z,99599.34
2023-03-29T08:01:02.612Z,99602.50
2023-03-29T08:02:23.990Z,99610.09
2023-03-29T08:03:29.671Z,99604.09
2023-03-29T08:04:32.236Z,99598.78
2023-03-29T08:05:52.895Z,99602.56
2023-03-29T08:06:56.556Z,99605.72
2023-03-29T08:08:06.703Z,99601.38
2023-03-29T08:09:32.016Z,99595.09
2023-03-29T08:10:35.978Z,99598.16
2023-03-29T08:11:41.358Z,99591.84
2023-03-29T08:12:52.521Z,99597.50
2023-03-29T08:14:00.297Z,99592.56
2023-03-29T08:15:02.847Z,99587.22
2023-03-29T08:16:09.201Z,99592.47
2023-03-29T08:17:17.719Z,99590.31
2023-03-29T08:18:24.549Z,99583.63
2023-03-29T08:19:27.056Z,99596.59
2023-03-29T08:20:39.503Z,99590.94
2023-03-29T08:21:41.857Z,99582.16
2023-03-29T08:22:44.669Z,99590.03
2023-03-29T08:24:02.124Z,99595.31
2023-03-29T08:25:18.525Z,99590.44
2023-03-29T08:26:24.563Z,99596.06
2023-03-29T08:27:27.208Z,99593.63
2023-03-29T08:28:30.091Z,99589.72
2023-03-29T08:29:32.257Z,99589.09
2023-03-29T08:30:34.746Z,99594.22
2023-03-29T08:31:38.467Z,99593.72
2023-03-29T08:32:41.585Z,99595.19
2023-03-29T08:33:45.203Z,99590.22
2023-03-29T08:35:09.532Z,99596.47
2023-03-29T08:36:17.552Z,99584.16
2023-03-29T08:37:20.497Z,99580.56
2023-03-29T08:38:27.768Z,99571.63
2023-03-29T08:39:31.609Z,99583.88
2023-03-29T08:41:45.995Z,99578.16
2023-03-29T08:42:53.899Z,99585.50
2023-03-29T08:44:20.376Z,99572.09
2023-03-29T08:45:43.163Z,99575.53
2023-03-29T08:47:29.825Z,99574.66
2023-03-29T08:48:56.845Z,99577.47
2023-03-29T08:50:01.460Z,99567.22
2023-03-29T08:51:29.402Z,99564.34
2023-03-29T08:52:39.375Z,99565.19
2023-03-29T08:54:05.357Z,99575.50
2023-03-29T08:55:43.012Z,99575.88
2023-03-29T08:57:21.786Z,99577.88
2023-03-29T08:58:32.227Z,99570.31
2023-03-29T08:59:34.918Z,99574.38
2023-03-29T09:00:47.712Z,99580.38
2023-03-29T09:01:53.907Z,99579.72
2023-03-29T09:03:00.051Z,99576.00
2023-03-29T09:04:05.929Z,99568.19
2023-03-29T09:05:39.989Z,99568.63
2023-03-29T09:06:51.004Z,99559.47
2023-03-29T09:07:57.396Z,99565.81
2023-03-29T09:09:01.285Z,99565.44
2023-03-29T09:10:03.802Z,99573.47
2023-03-29T09:11:35.505Z,99564.91
2023-03-29T09:13:11.999Z,99566.66
2023-03-29T09:14:34.314Z,99559.28
2023-03-29T09:15:45.654Z,99565.69
2023-03-29T09:17:26.388Z,99558.56
2023-03-29T09:18:47.430Z,99550.22
2023-03-29T09:19:49.757Z,99557.00
2023-03-29T09:21:04.308Z,99552.97
2023-03-29T09:22:29.488Z,99551.34
2023-03-29T09:23:55.788Z,99552.16
2023-03-29T09:25:34.544Z,99554.94
2023-03-29T09:26:56.187Z,99555.50
2023-03-29T09:28:59.606Z,99553.69
2023-03-29T09:30:25.671Z,99559.13
2023-03-29T09:31:44.412Z,99556.94
2023-03-29T09:32:52.919Z,99561.72
2023-03-29T09:34:06.985Z,99557.31
2023-03-29T09:35:29.610Z,99559.22
2023-03-29T09:36:47.192Z,99559.44
2023-03-29T09:37:52.518Z,99559.66
2023-03-29T09:38:55.496Z,99558.31
2023-03-29T09:40:05.273Z,99549.78
2023-03-29T09:41:49.344Z,99557.56
2023-03-29T09:42:53.917Z,99555.41
2023-03-29T09:44:00.056Z,99559.53
2023-03-29T09:45:09.198Z,99547.81
2023-03-29T09:46:43.283Z,99558.75
2023-03-29T09:48:05.213Z,99549.09
2023-03-29T09:49:12.328Z,99537.50
2023-03-29T09:50:31.583Z,99536.50
2023-03-29T09:51:35.169Z,99527.34
2023-03-29T09:52:37.641Z,99530.72
2023-03-29T09:54:00.718Z,99534.19
2023-03-29T09:55:28.515Z,99533.88
2023-03-29T09:56:39.802Z,99532.16
2023-03-29T09:57:50.074Z,99528.59
2023-03-29T09:58:53.525Z,99526.91
2023-03-29T09:59:57.607Z,99532.22
2023-03-29T10:01:03.158Z,99541.44
2023-03-29T10:02:13.449Z,99540.66
2023-03-29T10:03:25.384Z,99530.72
2023-03-29T10:04:42.911Z,99529.56
2023-03-29T10:05:47.344Z,99526.81
2023-03-29T10:06:52.745Z,99532.25
2023-03-29T10:08:01.117Z,99530.34
2023-03-29T10:09:04.435Z,99535.31
2023-03-29T10:10:27.153Z,99530.03
2023-03-29T10:11:32.963Z,99541.63
2023-03-29T10:12:35.237Z,99532.00
2023-03-29T10:13:45.867Z,99536.38
2023-03-29T10:14:53.634Z,99530.00
2023-03-29T10:16:01.804Z,99522.41
2023-03-29T10:17:11.168Z,99536.84
2023-03-29T10:18:13.988Z,99529.66
2023-03-29T10:19:22.311Z,99530.50
2023-03-29T10:20:24.781Z,99539.94
2023-03-29T10:21:29.620Z,99535.00
2023-03-29T10:22:35.124Z,99521.84
2023-03-29T10:23:38.197Z,99532.00
2023-03-29T10:24:40.454Z,99532.16
2023-03-29T10:25:43.088Z,99520.06
2023-03-29T10:26:45.958Z,99523.09
2023-03-29T10:27:48.309Z,99520.28
2023-03-29T10:28:57.028Z,99512.16
2023-03-29T10:30:07.306Z,99508.13
2023-03-29T10:31:18.432Z,99511.09
2023-03-29T10:32:37.600Z,99506.78
2023-03-29T10:33:40.164Z,99511.06
2023-03-29T10:34:43.720Z,99506.66
2023-03-29T10:35:48.042Z,99502.22
2023-03-29T10:36:58.492Z,99496.56
2023-03-29T10:38:07.522Z,99500.16
2023-03-29T10:39:13.189Z,99489.03
2023-03-29T10:40:22.207Z,99492.16
2023-03-29T10:41:27.155Z,99496.00
2023-03-29T10:42:29.445Z,99495.25
2023-03-29T10:43:37.111Z,99496.06
2023-03-29T10:44:39.693Z,99483.00
2023-03-29T10:45:42.419Z,99491.19
2023-03-29T10:46:44.815Z,99494.16
2023-03-29T10:47:48.679Z,99478.31
2023-03-29T10:48:56.621Z,99492.22
2023-03-29T10:49:58.968Z,99479.34
2023-03-29T10:51:03.194Z,99483.53
2023-03-29T10:52:07.284Z,99482.88
2023-03-29T10:53:18.849Z,99482.59
2023-03-29T10:54:24.284Z,99469.59
2023-03-29T10:55:36.855Z,99478.81
2023-03-29T10:56:47.148Z,99476.28
2023-03-29T10:58:01.602Z,99476.25
2023-03-29T10:59:25.487Z,99483.16
2023-03-29T11:00:51.100Z,99486.91
2023-03-29T11:02:15.015Z,99475.66
2023-03-29T11:03:40.210Z,99466.19
2023-03-29T11:04:42.757Z,99471.31
2023-03-29T11:05:50.593Z,99473.84
2023-03-29T11:06:59.622Z,99472.22
2023-03-29T11:08:19.889Z,99475.22
2023-03-29T11:09:33.788Z,99467.84
2023-03-29T11:11:14.889Z,99460.72
2023-03-29T11:12:31.650Z,99460.44
2023-03-29T11:13:40.791Z,99452.59
2023-03-29T11:14:55.672Z,99446.16
2023-03-29T11:16:19.725Z,99445.00
2023-03-29T11:17:50.927Z,99442.69
2023-03-29T11:19:02.145Z,99438.59
2023-03-29T11:20:26.934Z,99440.13
2023-03-29T11:21:54.222Z,99440.09
2023-03-29T11:23:22.175Z,99432.53
2023-03-29T11:24:38.022Z,99427.78
2023-03-29T11:26:04.879Z,99431.13
2023-03-29T11:27:28.805Z,99439.56
2023-03-29T11:28:47.180Z,99435.66
2023-03-29T11:29:58.646Z,99433.84
2023-03-29T11:31:19.173Z,99453.28
2023-03-29T11:32:39.085Z,99455.59
2023-03-29T11:34:13.524Z,99454.28
2023-03-29T11:35:47.213Z,99440.69
2023-03-29T11:37:00.981Z,99443.38
2023-03-29T11:38:29.294Z,99451.19
2023-03-29T11:40:00.290Z,99454.75
2023-03-29T11:41:18.818Z,99449.34
2023-03-29T11:42:25.380Z,99445.78
2023-03-29T11:43:36.908Z,99441.41
2023-03-29T11:44:41.515Z,99444.63
2023-03-29T11:46:09.212Z,99454.66
2023-03-29T11:47:26.512Z,99450.38
2023-03-29T11:48:34.730Z,99450.63
2023-03-29T11:49:46.604Z,99448.19
2023-03-29T11:51:16.011Z,99450.31
2023-03-29T11:52:41.187Z,99447.34
2023-03-29T11:53:51.247Z,99438.72
2023-03-29T11:55:12.522Z,99440.84
2023-03-29T11:56:26.596Z,99444.38
2023-03-29T11:57:43.669Z,99444.59
2023-03-29T11:58:50.368Z,99434.69
2023-03-29T12:00:07.905Z,99456.41
2023-03-29T12:01:50.677Z,99442.53
2023-03-29T12:03:13.135Z,99439.13
2023-03-29T12:04:28.724Z,99437.88
2023-03-29T12:05:44.138Z,99433.81
2023-03-29T12:07:28.783Z,99434.34
2023-03-29T12:08:44.121Z,99430.97
2023-03-29T12:09:53.082Z,99442.63
2023-03-29T12:11:08.473Z,99438.59
2023-03-29T12:12:19.924Z,99444.69
2023-03-29T12:13:30.437Z,99447.50
2023-03-29T12:14:35.738Z,99441.41
2023-03-29T12:15:45.986Z,99444.44
2023-03-29T12:16:53.764Z,99434.00
2023-03-29T12:18:08.287Z,99428.19
2023-03-29T12:19:16.452Z,99430.63
2023-03-29T12:20:26.656Z,99428.44
2023-03-29T12:21:30.900Z,99432.25
2023-03-29T12:22:33.795Z,99423.56
2023-03-29T12:23:36.364Z,99425.00
2023-03-29T12:24:41.592Z,99428.81
2023-03-29T12:26:11.969Z,99434.00
2023-03-29T12:27:49.479Z,99437.63
2023-03-29T12:29:10.589Z,99437.03
2023-03-29T12:30:23.368Z,99425.84
2023-03-29T12:31:31.436Z,99432.63
2023-03-29T12:32:49.371Z,99429.75
2023-03-29T12:34:56.087Z,99421.72
2023-03-29T12:36:35.602Z,99423.31
2023-03-29T12:38:24.611Z,99420.06
2023-03-29T12:39:45.703Z,99416.16
2023-03-29T12:41:23.313Z,99426.03
2023-03-29T12:42:56.913Z,99424.63
2023-03-29T12:44:20.512Z,99427.22
2023-03-29T12:45:38.614Z,99423.78
2023-03-29T12:46:41.129Z,99421.81
2023-03-29T12:47:45.894Z,99424.19
2023-03-29T12:48:53.981Z,99424.56
2023-03-29T12:49:58.319Z,99423.31
2023-03-29T12:51:03.302Z,99423.06
2023-03-29T12:52:29.979Z,99425.38
2023-03-29T12:53:35.920Z,99420.13
2023-03-29T12:54:41.068Z,99416.91
2023-03-29T12:55:43.510Z,99425.97
2023-03-29T12:56:51.836Z,99420.09
2023-03-29T12:58:03.562Z,99424.97
2023-03-29T12:59:10.729Z,99420.94
2023-03-29T13:00:22.386Z,99422.63
2023-03-29T13:01:29.601Z,99419.81
2023-03-29T13:02:42.019Z,99415.97
2023-03-29T13:03:52.715Z,99411.66
2023-03-29T13:04:57.451Z,99416.22
2023-03-29T13:06:03.531Z,99419.19
2023-03-29T13:07:12.506Z,99412.19
2023-03-29T13:08:27.324Z,99400.69
2023-03-29T13:09:31.179Z,99406.41
2023-03-29T13:10:42.729Z,99396.88
2023-03-29T13:11:51.576Z,99402.94
2023-03-29T13:12:54.552Z,99412.06
2023-03-29T13:13:57.908Z,99414.22
2023-03-29T13:15:02.820Z,99416.28
2023-03-29T13:16:19.729Z,99408.19
2023-03-29T13:17:31.807Z,99412.38
2023-03-29T13:18:56.009Z,99406.00
2023-03-29T13:20:31.826Z,99411.06
2023-03-29T13:22:07.266Z,99408.63
2023-03-29T13:23:27.044Z,99417.66
2023-03-29T13:24:39.026Z,99415.00
2023-03-29T13:25:59.527Z,99421.81
2023-03-29T13:27:25.197Z,99419.50
2023-03-29T13:28:49.175Z,99424.75
2023-03-29T13:30:26.655Z,99427.88
2023-03-29T13:31:41.703Z,99421.84
2023-03-29T13:33:05.495Z,99436.13
2023-03-29T13:34:26.606Z,99446.16
2023-03-29T13:35:54.927Z,99447.03
2023-03-29T13:37:00.377Z,99437.03
2023-03-29T13:38:20.904Z,99449.56
2023-03-29T13:39:28.450Z,99448.19
2023-03-29T13:40:33.052Z,99447.69
2023-03-29T13:41:38.062Z,99449.66
2023-03-29T13:42:41.952Z,99446.06
2023-03-29T13:43:44.649Z,99436.25
2023-03-29T13:44:49.230Z,99438.97
2023-03-29T13:46:23.714Z,99447.28
2023-03-29T13:47:26.359Z,99454.97
2023-03-29T13:48:31.805Z,99441.66
2023-03-29T13:49:35.533Z,99442.09
2023-03-29T13:50:51.371Z,99433.09
2023-03-29T13:51:53.568Z,99432.53
2023-03-29T13:53:05.085Z,99422.47
2023-03-29T13:54:35.016Z,99417.22
2023-03-29T13:55:44.227Z,99418.97
2023-03-29T13:57:11.015Z,99418.56
2023-03-29T13:58:29.042Z,99420.06
2023-03-29T13:59:55.044Z,99418.81
2023-03-29T14:01:23.270Z,99408.25
2023-03-29T14:02:40.613Z,99405.13
2023-03-29T14:03:46.850Z,99406.09
2023-03-29T14:04:52.049Z,99406.19
2023-03-29T14:05:59.585Z,99400.97
2023-03-29T14:07:02.346Z,99402.69